Station: Portable Qfrm (Anduramba)  

  Atmospheric Gas Attenuation - ITU Rec 676-11   ----------------- dB/100km -----------------
Date Time Temp RH % AH g/m3 Dew Point Wind Direction Speed kph Gust kph Barometer mB Rainfall Since 9am 24GHz 47GHz 76GHz 122GHz 134GHz 241GHz
08/05 12:30 16 30 4.09 -1.3 15 20 1013.1 0 10.0 18.7 22.6 58.6 42.6 142.9
08/05 12:20 15.7 28 3.75 -2.7 17 20 1013.1 0 9.3 18.4 21.6 55.9 39.1 130.6
08/05 12:10 15 29 3.72 -2.8 19 20 1013.1 0 9.2 18.5 21.7 56.1 39.1 130.6
08/05 12:00 15.1 29 3.74 -2.6 17 24 1013.1 0 9.2 18.5 21.7 56.2 39.3 131.2
08/05 11:50 15.3 29 3.79 -2.7 17 22 1013.1 0 9.3 18.5 21.9 56.5 39.7 132.7
08/05 11:40 15.5 28 3.7 -3 13 17 1013.1 0 9.2 18.3 21.5 55.6 38.7 129.0
08/05 11:30 14.8 34 4.31 -0.9 15 22 1013.1 0 10.5 19.3 23.7 61.4 45.6 153.4
08/05 11:20 14.6 31 3.88 -2.2 15 20 1013.1 0 9.6 18.8 22.3 57.8 41.0 137.3
08/05 11:10 14 30 3.62 -3 17 19 1013.1 0 9.0 18.5 21.6 55.9 38.5 128.3
08/05 11:00 13.7 34 4.03 -1.8 15 19 1013.1 0 9.9 19.1 23.1 59.7 43.1 144.6
08/05 10:50 13.8 33 3.93 -2.2 15 17 1013.1 0 9.7 19.0 22.7 58.8 42.0 140.5
08/05 10:40 13.5 35 4.09 -1.4 9 17 1013.1 0 10.0 19.3 23.3 60.4 43.9 147.2
08/05 10:30 12.9 37 4.17 -1.2 11 17 1013.1 0 10.2 19.5 23.8 61.6 45.1 151.5
08/05 10:20 12.4 37 4.04 -1.9 9 15 1013.1 0 10.0 19.4 23.5 60.8 44.0 147.2
08/05 10:10 11.6 35 3.64 -3.4 11 15 1013.1 0 9.1 19.0 22.3 57.7 39.9 132.9
08/05 10:00 11.9 35 3.71 -2.9 9 11 1013.1 0 9.3 19.1 22.5 58.2 40.5 135.1
08/05 09:40 11.1 37 3.73 -2.8 11 13 1013.1 0 9.3 19.3 22.8 58.9 41.2 137.3
08/05 09:30 10.2 42 4 -2.1 13 17 1013.1 0 9.9 19.8 24.0 62.1 44.7 149.6
08/05 09:20 10.1 37 3.5 -3.9 17 22 1013.1 0 8.9 19.1 22.3 57.5 39.1 129.8
08/05 09:10 10 37 3.48 -4 19 20 1013.1 0 8.8 19.1 22.2 57.4 38.9 129.1
08/05 09:00 9.7 37 3.41 -4.3 20 22 1013.1 0 8.7 19.1 22.1 57.0 38.3 126.8
08/05 08:50 9.3 37 3.33 -4.6 22 30 1013.1 0 8.5 19.1 21.9 56.6 37.5 124.3
08/05 08:40 8.9 36 3.15 -5.2 30 33 1013.1 0 8.2 18.9 21.4 55.2 35.7 117.7
08/05 08:30 8.7 37 3.2 -5.1 30 33 1013.1 0 8.3 19.0 21.6 55.8 36.4 120.0
08/05 08:20 8.6 37 3.18 -5.3 28 32 1013.1 0 8.2 19.0 21.6 55.7 36.2 119.3
08/05 08:10 8.6 34 2.92 -6.4 32 33 1013.1 0 7.7 18.7 20.7 53.3 33.3 109.0
08/05 08:00 7.8 36 2.94 -6.4 30 32 1013.1 0 7.8 18.8 21.0 54.0 33.8 110.9
08/05 07:50 7.2 41 3.22 -5.2 30 32 1013.1 0 8.4 19.4 22.1 57.0 37.3 123.0
08/05 07:40 7.1 41 3.2 -5.3 28 33 1013.1 0 8.3 19.4 22.0 56.9 37.1 122.3
08/05 07:30 6.8 39 2.98 -6 28 32 1013.1 0 7.9 19.1 21.4 55.1 34.7 113.9
08/05 07:20 6.6 42 3.17 -5.2 28 32 1013.1 0 8.3 19.4 22.1 57.0 37.0 121.9
08/05 07:10 6.1 42 3.07 -5.7 28 32 1013.1 0 8.1 19.4 21.9 56.4 36.0 118.5
08/05 07:00 5.9 41 2.96 -6.3 28 30 1013.1 0 7.8 19.3 21.5 55.5 34.8 114.3
08/05 06:50 5.4 45 3.14 -5.5 30 32 1013.1 0 8.2 19.6 22.3 57.6 37.2 122.4
08/05 06:40 5.3 45 3.12 -5.7 28 33 1013.1 0 8.2 19.6 22.2 57.4 37.0 121.8
08/05 06:30 5.3 44 3.05 -6 30 32 1013.1 0 8.0 19.5 22.0 56.8 36.2 118.9
08/05 06:20 5.1 47 3.22 -5.3 30 32 1013.1 0 8.4 19.8 22.7 58.5 38.3 126.2
08/05 06:10 5.1 47 3.22 -5.3 30 33 1013.1 0 8.4 19.8 22.7 58.5 38.3 126.2
08/05 06:00 5.1 47 3.22 -5.2 32 35 1013.1 0 8.4 19.8 22.7 58.5 38.3 126.2
08/05 05:50 5.1 48 3.29 -5 33 35 1013.1 0 8.6 19.9 22.9 59.2 39.1 129.1
08/05 05:40 5.1 48 3.29 -5 28 35 1013.1 0 8.6 19.9 22.9 59.2 39.1 129.1
08/05 05:30 5.2 49 3.38 -4.7 30 32 1013.1 0 8.8 20.0 23.2 60.0 40.1 132.7
08/05 05:20 5.2 49 3.38 -4.6 28 32 1013.1 0 8.8 20.0 23.2 60.0 40.1 132.7
08/05 05:10 5 50 3.4 -4.5 28 32 1013.1 0 8.8 20.1 23.3 60.3 40.4 133.9
08/05 05:00 5 52 3.54 -3.9 28 32 1013.1 0 9.1 20.3 23.8 61.7 42.1 139.8
08/05 04:50 5.3 51 3.54 -4 28 35 1013.1 0 9.1 20.2 23.8 61.5 42.0 139.3
08/05 04:40 5.5 50 3.51 -4.1 30 33 1013.1 0 9.0 20.1 23.6 61.0 41.5 137.7
08/05 04:30 5.4 50 3.49 -4.1 28 35 1013.1 0 9.0 20.1 23.5 60.9 41.3 137.0
08/05 04:20 5.6 51 3.61 -3.8 33 37 1013.1 0 9.2 20.3 23.9 61.9 42.6 141.7
08/05 04:10 5.9 48 3.46 -4.1 35 39 1013.1 0 8.9 20.0 23.3 60.2 40.7 134.9
08/05 04:00 6 48 3.49 -4 37 43 1013.1 0 9.0 20.0 23.4 60.5 41.0 136.0
08/05 03:40 6.3 47 3.48 -4.1 39 44 1013.1 0 8.9 19.9 23.2 60.1 40.7 135.1
08/05 03:30 6.3 46 3.41 -4.5 32 35 1013.1 0 8.8 19.8 23.0 59.5 39.9 132.2
08/05 03:20 6.2 48 3.53 -3.9 26 32 1013.1 0 9.0 20.0 23.5 60.7 41.4 137.4
08/05 03:10 6.2 50 3.68 -3.5 30 33 1013.1 0 9.4 20.2 24.0 62.1 43.2 143.6
08/05 03:00 6.3 49 3.63 -3.6 28 33 1013.1 0 9.3 20.1 23.8 61.6 42.5 141.4
08/05 02:50 6.1 50 3.66 -3.4 22 30 1013.1 0 9.3 20.2 24.0 62.0 43.0 143.0
08/05 02:40 6.2 52 3.83 -2.9 24 30 1013.1 0 9.7 20.5 24.5 63.6 45.0 150.0
08/05 02:30 6.4 52 3.88 -2.6 26 32 1013.1 0 9.8 20.5 24.7 63.9 45.4 151.7
08/05 02:20 6.7 51 3.88 -2.8 33 43 1013.1 0 9.8 20.4 24.6 63.7 45.3 151.1
08/05 02:10 6.7 51 3.88 -2.7 37 41 1013.1 0 9.8 20.4 24.6 63.7 45.3 151.1
08/05 02:00 6.8 52 3.98 -2.4 37 41 1013.1 0 10.0 20.5 24.9 64.6 46.4 155.2
08/05 01:50 7 52 4.03 -2.1 39 41 1013.1 0 10.1 20.6 25.0 64.9 46.9 156.9
08/05 01:40 7.2 53 4.16 -1.8 44 46 1013.1 0 10.4 20.7 25.4 66.0 48.3 162.0
08/05 01:30 7.3 51 4.03 -2.1 44 48 1013.1 0 10.1 20.5 24.9 64.6 46.7 156.3
08/05 01:20 7.4 53 4.22 -1.6 46 50 1013.1 0 10.5 20.8 25.6 66.4 48.9 164.1
08/05 01:10 7.8 53 4.33 -1.2 50 54 1013.1 0 10.7 20.8 25.9 67.1 50.0 168.0
08/05 01:00 8.1 51 4.25 -1.4 52 56 1013.1 0 10.5 20.6 25.5 66.1 48.9 164.0
08/05 00:50 8.1 54 4.5 -0.5 50 54 1013.1 0 11.1 21.0 26.4 68.5 51.9 174.5
08/05 00:40 8.2 59 4.94 0.7 43 50 1013.1 0 12.0 21.6 28.0 72.8 57.2 193.2
08/05 00:30 8.2 63 5.28 1.6 35 41 1013.1 0 12.7 22.2 29.2 76.2 61.4 208.0
08/05 00:20 8.4 64 5.43 2 32 37 1013.1 0 13.0 22.3 29.7 77.5 63.1 214.0
08/05 00:10 8.5 63 5.38 1.9 30 35 1013.1 0 12.9 22.2 29.5 76.9 62.4 211.6
08/05 00:00 8.8 64 5.57 2.4 32 35 1013.1 0 13.3 22.5 30.1 78.6 64.5 219.1
07/05 23:50 9 64 5.64 2.5 35 43 1013.1 0 13.5 22.5 30.3 79.1 65.2 221.7
07/05 23:40 9.1 64 5.68 2.6 32 41 1013.1 0 13.5 22.5 30.4 79.4 65.7 223.1
07/05 23:30 9.3 64 5.75 2.9 33 37 1013.1 0 13.7 22.6 30.6 79.9 66.4 225.7
07/05 23:20 9.4 67 6.06 3.7 30 33 1013.1 0 14.3 23.1 31.8 83.0 70.2 239.1
07/05 23:10 9.6 68 6.23 4 33 37 1013.1 0 14.7 23.3 32.3 84.5 72.2 246.1
07/05 23:00 9.7 69 6.36 4.3 33 37 1013.1 0 15.0 23.4 32.8 85.7 73.8 251.6
07/05 22:50 9.9 70 6.54 4.7 35 41 1013.1 0 15.4 23.7 33.4 87.4 75.9 259.1
07/05 22:40 10 71 6.67 5 28 32 1013.1 0 15.6 23.9 33.9 88.6 77.5 264.6
07/05 22:30 10.3 69 6.61 4.9 30 35 1013.1 0 15.5 23.7 33.5 87.7 76.4 260.9
07/05 22:20 10.6 67 6.54 4.7 35 41 1013.1 0 15.3 23.5 33.1 86.6 75.2 256.8
07/05 22:10 10.9 64 6.37 4.5 37 44 1013.1 0 15.0 23.2 32.4 84.5 72.8 248.3
07/05 22:00 11.3 62 6.33 4.3 35 43 1013.1 0 14.9 23.0 32.0 83.7 71.9 245.3
07/05 21:50 11.7 60 6.28 4.2 37 46 1013.1 0 14.7 22.8 31.7 82.8 70.9 241.9
07/05 21:40 11.8 59 6.21 4.1 39 52 1013.1 0 14.6 22.7 31.4 82.0 70.0 238.5
07/05 21:30 12 58 6.18 4 39 44 1013.1 0 14.5 22.6 31.2 81.5 69.4 236.6
07/05 21:20 12.2 57 6.15 3.9 44 52 1013.1 0 14.4 22.5 31.0 81.0 68.9 234.8
07/05 21:10 12.4 55 6.01 3.7 44 48 1013.1 0 14.1 22.2 30.4 79.4 67.0 228.2
07/05 21:00 12.6 54 5.97 3.5 44 52 1013.1 0 14.0 22.1 30.2 78.8 66.3 225.9
07/05 20:50 12.7 52 5.79 3.3 43 52 1013.1 0 13.6 21.8 29.5 76.9 64.1 218.0
07/05 20:40 12.9 51 5.75 3.1 43 46 1013.1 0 13.6 21.7 29.3 76.4 63.4 215.8
07/05 20:30 12.9 51 5.75 3.2 39 46 1013.1 0 13.6 21.7 29.3 76.4 63.4 215.8
07/05 20:20 13.1 50 5.71 3 37 44 1013.1 0 13.5 21.6 29.1 75.8 62.8 213.6
07/05 20:10 13.1 49 5.59 2.8 35 44 1013.1 0 13.2 21.4 28.6 74.6 61.4 208.6
07/05 20:00 13.2 49 5.63 2.7 33 39 1013.1 0 13.3 21.5 28.8 74.9 61.8 210.0
07/05 19:50 13.5 47 5.5 2.5 33 35 1013.1 0 13.0 21.2 28.2 73.4 60.0 203.8
07/05 19:40 13.4 48 5.58 2.8 28 35 1013.1 0 13.2 21.4 28.5 74.3 61.0 207.4

Last Refresh: 08-May-2026 12:10:21

Bureau of Meteorology